メインページ
METAR-TAF:

METAR-TAF

空港 :

旭川, 日本

旭川空港

緯度: 43-40N, 経度: 142-27E, 海抜: 208m

現時点の気象観測

当レポートは52分前の23:00(UTC)に作成
南/南西の風 8kt
気温 -14°C
湿度 78%
気圧 1015 hPa
視程10km以上
高度1500ftの雲はほとんどない
高度4000ftの雲は散在している
千切れ雲あり
近辺でにわか雨

METAR: RJEC 182300Z 20008KT 9999 VCSH FEW015 SCT040 BKN/// M14/M17 Q1015

時間: 08:52 (23:52 UTC)

予報

当レポートは44分前の23:08(UTC)に作成
予報は19日の 00時(UTC)から 20日の 06時(UTC)まで有効
南西の風 11kt
視程10km以上
高度800ftの雲はほとんどない
高度2000ftの千切れ雲あり
19日の 02時(UTC)から 19日の 09時(UTC)まで一時的に
視程: 2000m
弱いにわか雪
19日の 12時(UTC)から 19日の 15時(UTC)まで一時的に
視程: 3000m
弱いにわか雪
19日の 15時(UTC)から 19日の 21時(UTC)まで一時的に
視程: 1500m
高度500ftの雲はほとんどない
高度800ftの千切れ雲あり
弱いにわか雪
19日の 18時(UTC)から 19日の 21時(UTC)まで徐々に
西/北西の風 4kt
19日の 21時(UTC)から 20日の 06時(UTC)まで一時的に
視程: 3000m
弱いにわか雪

TAF: RJEC 182308Z 1900/2006 22011KT 9999 FEW008 BKN020 TEMPO 1902/1909 2000 -SHSN TEMPO 1912/1915 3000 -SHSN TEMPO 1915/1921 1500 -SHSN FEW005 BKN008 BECMG 1918/1921 30004KT TEMPO 1921/2006 3000 -SHSN

4,000以上の空港の気象観測と天気予報(METAR報とTAF報)

利用可能な観測所は地図上に黄色い丸と赤い丸で示す。

丸の上にカーソルを重ねると観測所名を参照できる。

次にクリックすると気象観測と天気予報を参照できる。

マップの切り替え:黒色「×」印の緑ボタンをクリックして拡大、「-」印の緑ボタンをクリックして縮小、緑色の三角印をクリックして隣りの地図に切り替え


METAR-TAF: